ADDS METAR Data INFO
IDs: Format: Raw Decoded Include TAF

Data at: 0922 UTC 13 Dec 2017

KMIE 130853Z AUTO 22005KT 10SM SCT070 BKN090 M08/M13 A2991 RMK AO2 SLP139 T10781128 56010
KMIE 130753Z AUTO 22004KT 10SM CLR M08/M13 A2992 RMK AO2 SLP140 T10831133
KMIE 130653Z AUTO 25004KT 10SM BKN075 M08/M13 A2993 RMK AO2 SLP144 T10781128
KMIE 130553Z AUTO 26004KT 10SM SCT080 M08/M13 A2994 RMK AO2 SLP149 T10831128 11061 21089 58016
KMIE 130453Z AUTO 28006KT 10SM SCT080 M08/M13 A2997 RMK AO2 SLP159 T10831133 400171089
KMIE 130353Z AUTO 27005KT 10SM CLR M08/M13 A2998 RMK AO2 SLP162 T10831133
KMIE 130253Z 28004KT 10SM CLR M09/M14 A2999 RMK AO2 SLP165 T10891139 58001
KMIE 130153Z 28004KT 10SM CLR M08/M14 A3000 RMK AO2 SLP168 T10831139
KMIE 130053Z 30005KT 10SM CLR M08/M13 A3000 RMK AO2 SLP166 T10781133
KMIE 122353Z 31010KT 10SM CLR M06/M13 A2999 RMK AO2 SLP164 T10611133 11017 21061 53012
KMIE 122253Z 30012G19KT 10SM BKN044 M05/M14 A2998 RMK AO2 SLP160 T10501139
KMIE 122153Z 31016G19KT 10SM BKN044 M04/M14 A2996 RMK AO2 SLP153 T10441144
KMIE 122053Z 30016KT 10SM BKN048 M04/M13 A2996 RMK AO2 PK WND 31027/2004 SLP150 T10391133 55001
KMIE 121953Z 30016G25KT 10SM BKN040 OVC049 M03/M13 A2995 RMK AO2 PK WND 31027/1900 SLP147 T10331128
KMIE 121853Z 31017G25KT 10SM BKN038 BKN046 M02/M12 A2995 RMK AO2 PK WND 31026/1804 SLP147 T10221117
KMIE 121824Z 29014G21KT 10SM BKN035 OVC050 M03/M11 A2995 RMK AO2 PK WND 31026/1804 T10331111
KMIE 121753Z 30012G23KT 10SM BKN030 BKN036 OVC055 M03/M11 A2996 RMK AO2 SNB1656E24 SLP151 P0000 60000 T10331106 11017 21044 58005
KMIE 121739Z 31013KT 10SM BKN027 OVC036 M03/M10 A2996 RMK AO2 SNB1656E24 P0000 T10331100
KMIE 121731Z 32017KT 9SM SCT025 BKN034 OVC055 M04/M10 A2996 RMK AO2 SNB1656E24 P0000 T10391100
KMIE 121701Z 31020G26KT 3SM -SN FEW020 BKN027 OVC035 M04/M09 A2997 RMK AO2 SNB1656 P0000 T10391094
KMIE 121653Z 31021G26KT 9SM FEW020 BKN033 OVC050 M04/M09 A2998 RMK AO2 PK WND 31026/1653 SNE49 SLP157 P0000 T10391089
KMIE 121614Z 31017G23KT 6SM -SN FEW014 BKN034 OVC055 M04/M08 A2998 RMK AO2 P0000 T10441083
KMIE 121607Z 29017G23KT 6SM -SN SCT017 BKN025 OVC055 M04/M08 A2998 RMK AO2 P0000 T10391078
KMIE 121553Z 30014KT 2SM -SN BKN017 OVC025 M04/M08 A2997 RMK AO2 SLP155 P0000 T10391078
KMIE 121551Z 30014G23KT 2SM -SN BKN018 BKN025 OVC033 M04/M08 A2997 RMK AO2 P0000
KMIE 121528Z 30014G23KT 3SM -SN SCT019 BKN024 OVC060 M04/M08 A2997 RMK AO2 P0000 T10391078
KMIE 121522Z 32017G23KT 1 3/4SM -SN SCT019 BKN026 OVC060 M04/M08 A2997 RMK AO2 VIS 1V3 P0000 T10391078
KMIE 121513Z 31014G19KT 2 1/2SM -SN SCT017 BKN021 OVC060 M03/M08 A2996 RMK AO2 P0000 T10331078
KMIE 121453Z 32013KT 5SM -SN FEW025 FEW035 OVC055 M03/M08 A2996 RMK AO2 PK WND 34027/1404 SNB47 SLP150 P0000 60000 T10331083 51024
KMIE 121353Z 33016G24KT 10SM OVC055 M03/M09 A2994 RMK AO2 PK WND 33027/1330 SLP144 T10331089
KMIE 121253Z 32016G22KT 10SM OVC055 M03/M08 A2992 RMK AO2 PK WND 33026/1202 SLP135 T10281078
KMIE 121153Z 33018G22KT 10SM BKN030 BKN035 OVC060 M02/M07 A2989 RMK AO2 SLP126 60000 I6002 T10171067 10017 21017 53024
KMIE 121100Z AUTO 33017G23KT 10SM SCT025 BKN031 OVC044 M01/M05 A2985 RMK AO2 T10061050
KMIE 121053Z AUTO 32017G23KT 10SM BKN025 BKN031 OVC044 M01/M05 A2985 RMK AO2 SLP111 I1000 T10061050
KMIE 120953Z AUTO 31018G21KT 10SM FEW014 BKN021 OVC026 00/M03 A2982 RMK AO2 PK WND 32026/0937 FZRAB0858E13 SLP103 P0000 I1002 T00001033
KMIE 120938Z AUTO 32018G26KT 8SM FEW008 SCT014 OVC021 00/M03 A2982 RMK AO2 PK WND 32026/0937 FZRAB0858E13 P0000 I1002 T00001028
KMIE 120919Z AUTO 31014KT 5SM BR FEW008 BKN013 OVC023 01/M02 A2982 RMK AO2 FZRAB0858E13 P0000 I1002 T00061017
KMIE 120902Z AUTO 32015G25KT 3SM -FZRA BR FEW008 BKN014 OVC023 01/M02 A2982 RMK AO2 FZRAB0858 P0000 I1002 T00061017
KMIE 120853Z AUTO 33018G24KT 6SM HZ BKN013 OVC022 01/M02 A2982 RMK AO2 PK WND 34029/0814 SLP099 60000 I1000 I3000 T00061022 53021
KMIE 120805Z AUTO 32021G27KT 7SM OVC010 02/M02 A2979 RMK AO2 PK WND 32027/0801 T00171017
KMIE 120753Z AUTO 32015G23KT 6SM HZ OVC009 02/M01 A2979 RMK AO2 SLP090 T00171011
KMIE 120653Z AUTO 30012G20KT 5SM BR OVC007 01/M01 A2977 RMK AO2 SNE0555 SLP083 P0000 T00111011
KMIE 120610Z AUTO 31013G20KT 5SM HZ OVC008 01/M02 A2976 RMK AO2 SNE0555 CIG 007V011 P0000 T00111017
KMIE 120553Z AUTO 31015G21KT 5SM -SN OVC011 01/M02 A2975 RMK AO2 SNB35 CIG 009V013 SLP078 P0000 60000 T00111022 10050 20006 53034
KMIE 120524Z AUTO 31015G21KT 9SM BKN013 OVC065 01/M03 A2974 RMK AO2 T00111028
KMIE 120453Z AUTO 31013KT 10SM BKN070 02/M03 A2972 RMK AO2 SLP069 T00171028 400561078
KMIE 120353Z AUTO 28015G22KT 10SM OVC050 04/M03 A2967 RMK AO2 SLP049 T00441028
KMIE 120253Z 25011KT 10SM SCT110 04/M03 A2965 RMK AO2 SLP043 T00441033 55004
KMIE 120153Z 24007KT 10SM CLR 04/M02 A2964 RMK AO2 SLP043 T00391022
KMIE 120053Z VRB04KT 10SM SCT060 03/M02 A2966 RMK AO2 SLP049 T00331022
KMIE 112353Z 14006KT 10SM CLR 03/M02 A2966 RMK AO2 SLP048 T00281022 10056 20022 58020
KMIE 112253Z 15007KT 10SM CLR 03/M02 A2968 RMK AO2 SLP057 T00331022
KMIE 112153Z 14005KT 10SM CLR 04/M02 A2972 RMK AO2 SLP069 T00391022